sensor_id;sensor_type;location;lat;lon;timestamp;P1;durP1;ratioP1;P2;durP2;ratioP2
17648;SDS011;8943;51.110;-4.158;2022-07-23T00:00:36;9.00;;;4.80;;
17648;SDS011;8943;51.110;-4.158;2022-07-23T00:03:05;7.30;;;5.00;;
17648;SDS011;8943;51.110;-4.158;2022-07-23T00:05:33;6.40;;;3.77;;
17648;SDS011;8943;51.110;-4.158;2022-07-23T00:08:04;5.70;;;3.40;;
17648;SDS011;8943;51.110;-4.158;2022-07-23T00:10:37;6.87;;;3.13;;
17648;SDS011;8943;51.110;-4.158;2022-07-23T00:13:06;6.27;;;3.50;;
17648;SDS011;8943;51.110;-4.158;2022-07-23T00:15:36;6.10;;;4.07;;
17648;SDS011;8943;51.110;-4.158;2022-07-23T00:18:04;6.13;;;3.00;;
17648;SDS011;8943;51.110;-4.158;2022-07-23T00:20:32;6.00;;;2.90;;
17648;SDS011;8943;51.110;-4.158;2022-07-23T00:23:01;3.40;;;2.57;;
17648;SDS011;8943;51.110;-4.158;2022-07-23T00:25:29;5.43;;;3.87;;
17648;SDS011;8943;51.110;-4.158;2022-07-23T00:27:58;7.07;;;3.87;;
17648;SDS011;8943;51.110;-4.158;2022-07-23T00:30:29;4.50;;;2.20;;
17648;SDS011;8943;51.110;-4.158;2022-07-23T00:32:59;4.30;;;3.03;;
17648;SDS011;8943;51.110;-4.158;2022-07-23T00:35:32;5.23;;;2.50;;
17648;SDS011;8943;51.110;-4.158;2022-07-23T00:38:02;4.93;;;2.73;;
17648;SDS011;8943;51.110;-4.158;2022-07-23T00:40:32;5.87;;;2.20;;
17648;SDS011;8943;51.110;-4.158;2022-07-23T00:43:01;5.77;;;2.40;;
17648;SDS011;8943;51.110;-4.158;2022-07-23T00:45:33;3.40;;;2.10;;
17648;SDS011;8943;51.110;-4.158;2022-07-23T00:48:02;6.73;;;2.03;;
17648;SDS011;8943;51.110;-4.158;2022-07-23T00:50:30;6.53;;;2.50;;
17648;SDS011;8943;51.110;-4.158;2022-07-23T00:52:59;5.03;;;2.67;;
17648;SDS011;8943;51.110;-4.158;2022-07-23T00:55:28;3.03;;;2.27;;
17648;SDS011;8943;51.110;-4.158;2022-07-23T00:57:56;2.30;;;1.87;;
17648;SDS011;8943;51.110;-4.158;2022-07-23T01:00:26;6.10;;;2.33;;
17648;SDS011;8943;51.110;-4.158;2022-07-23T01:02:55;6.03;;;2.30;;
17648;SDS011;8943;51.110;-4.158;2022-07-23T01:05:24;3.00;;;2.27;;
17648;SDS011;8943;51.110;-4.158;2022-07-23T01:07:52;6.77;;;2.70;;
17648;SDS011;8943;51.110;-4.158;2022-07-23T01:10:22;4.20;;;2.63;;
17648;SDS011;8943;51.110;-4.158;2022-07-23T01:13:01;4.63;;;2.50;;
17648;SDS011;8943;51.110;-4.158;2022-07-23T01:15:31;3.17;;;2.13;;
17648;SDS011;8943;51.110;-4.158;2022-07-23T01:18:01;3.83;;;2.37;;
17648;SDS011;8943;51.110;-4.158;2022-07-23T01:20:31;2.73;;;1.93;;
17648;SDS011;8943;51.110;-4.158;2022-07-23T01:23:01;4.03;;;2.03;;
17648;SDS011;8943;51.110;-4.158;2022-07-23T01:25:29;4.20;;;2.30;;
17648;SDS011;8943;51.110;-4.158;2022-07-23T01:27:59;4.47;;;2.70;;
17648;SDS011;8943;51.110;-4.158;2022-07-23T01:30:27;4.80;;;2.13;;
17648;SDS011;8943;51.110;-4.158;2022-07-23T01:32:55;6.70;;;3.10;;
17648;SDS011;8943;51.110;-4.158;2022-07-23T01:35:24;6.77;;;3.03;;
17648;SDS011;8943;51.110;-4.158;2022-07-23T01:37:52;6.10;;;2.97;;
17648;SDS011;8943;51.110;-4.158;2022-07-23T01:40:22;3.77;;;2.20;;
17648;SDS011;8943;51.110;-4.158;2022-07-23T01:42:50;2.37;;;2.03;;
17648;SDS011;8943;51.110;-4.158;2022-07-23T01:45:19;3.90;;;2.00;;
17648;SDS011;8943;51.110;-4.158;2022-07-23T01:47:48;6.37;;;1.90;;
17648;SDS011;8943;51.110;-4.158;2022-07-23T01:50:16;3.53;;;1.90;;
17648;SDS011;8943;51.110;-4.158;2022-07-23T01:52:45;2.67;;;2.10;;
17648;SDS011;8943;51.110;-4.158;2022-07-23T01:55:13;4.97;;;2.23;;
17648;SDS011;8943;51.110;-4.158;2022-07-23T01:57:45;4.37;;;2.30;;
17648;SDS011;8943;51.110;-4.158;2022-07-23T02:00:14;3.20;;;2.13;;
17648;SDS011;8943;51.110;-4.158;2022-07-23T02:02:43;2.23;;;2.00;;
17648;SDS011;8943;51.110;-4.158;2022-07-23T02:05:12;4.57;;;2.20;;
17648;SDS011;8943;51.110;-4.158;2022-07-23T02:07:40;5.07;;;2.60;;
17648;SDS011;8943;51.110;-4.158;2022-07-23T02:10:09;3.10;;;2.03;;
17648;SDS011;8943;51.110;-4.158;2022-07-23T02:12:37;3.83;;;2.40;;
17648;SDS011;8943;51.110;-4.158;2022-07-23T02:15:08;3.10;;;1.90;;
17648;SDS011;8943;51.110;-4.158;2022-07-23T02:17:39;3.73;;;2.57;;
17648;SDS011;8943;51.110;-4.158;2022-07-23T02:20:08;5.17;;;2.50;;
17648;SDS011;8943;51.110;-4.158;2022-07-23T02:22:38;2.47;;;2.07;;
17648;SDS011;8943;51.110;-4.158;2022-07-23T02:25:07;4.67;;;2.20;;
17648;SDS011;8943;51.110;-4.158;2022-07-23T02:27:36;7.13;;;2.40;;
17648;SDS011;8943;51.110;-4.158;2022-07-23T02:30:05;4.93;;;2.37;;
17648;SDS011;8943;51.110;-4.158;2022-07-23T02:32:35;8.50;;;2.20;;
17648;SDS011;8943;51.110;-4.158;2022-07-23T02:35:06;2.80;;;2.40;;
17648;SDS011;8943;51.110;-4.158;2022-07-23T02:37:35;3.43;;;2.30;;
17648;SDS011;8943;51.110;-4.158;2022-07-23T02:40:04;3.17;;;2.20;;
17648;SDS011;8943;51.110;-4.158;2022-07-23T02:42:33;2.73;;;2.03;;
17648;SDS011;8943;51.110;-4.158;2022-07-23T02:45:01;3.53;;;2.43;;
17648;SDS011;8943;51.110;-4.158;2022-07-23T02:47:35;4.33;;;2.20;;
17648;SDS011;8943;51.110;-4.158;2022-07-23T02:50:03;5.27;;;1.97;;
17648;SDS011;8943;51.110;-4.158;2022-07-23T02:52:33;3.53;;;2.50;;
17648;SDS011;8943;51.110;-4.158;2022-07-23T02:55:03;5.13;;;2.23;;
17648;SDS011;8943;51.110;-4.158;2022-07-23T02:57:32;2.67;;;1.93;;
17648;SDS011;8943;51.110;-4.158;2022-07-23T03:00:01;3.47;;;2.13;;
17648;SDS011;8943;51.110;-4.158;2022-07-23T03:02:29;4.93;;;2.47;;
17648;SDS011;8943;51.110;-4.158;2022-07-23T03:04:59;3.00;;;2.03;;
17648;SDS011;8943;51.110;-4.158;2022-07-23T03:07:29;3.20;;;2.07;;
17648;SDS011;8943;51.110;-4.158;2022-07-23T03:09:57;3.43;;;2.67;;
17648;SDS011;8943;51.110;-4.158;2022-07-23T03:12:25;2.77;;;1.80;;
17648;SDS011;8943;51.110;-4.158;2022-07-23T03:14:53;2.63;;;2.10;;
17648;SDS011;8943;51.110;-4.158;2022-07-23T03:17:22;3.33;;;2.20;;
17648;SDS011;8943;51.110;-4.158;2022-07-23T03:19:50;3.00;;;2.10;;
17648;SDS011;8943;51.110;-4.158;2022-07-23T03:22:20;5.10;;;2.23;;
17648;SDS011;8943;51.110;-4.158;2022-07-23T03:24:50;3.80;;;1.90;;
17648;SDS011;8943;51.110;-4.158;2022-07-23T03:27:22;5.50;;;2.03;;
17648;SDS011;8943;51.110;-4.158;2022-07-23T03:29:50;4.47;;;1.70;;
17648;SDS011;8943;51.110;-4.158;2022-07-23T03:32:19;3.47;;;1.97;;
17648;SDS011;8943;51.110;-4.158;2022-07-23T03:34:47;4.27;;;2.20;;
17648;SDS011;8943;51.110;-4.158;2022-07-23T03:37:16;2.90;;;2.00;;
17648;SDS011;8943;51.110;-4.158;2022-07-23T03:39:46;5.97;;;2.30;;
17648;SDS011;8943;51.110;-4.158;2022-07-23T03:42:15;3.80;;;1.80;;
17648;SDS011;8943;51.110;-4.158;2022-07-23T03:44:43;3.90;;;2.60;;
17648;SDS011;8943;51.110;-4.158;2022-07-23T03:47:12;2.53;;;2.07;;
17648;SDS011;8943;51.110;-4.158;2022-07-23T03:49:40;3.80;;;2.30;;
17648;SDS011;8943;51.110;-4.158;2022-07-23T03:52:09;3.20;;;2.40;;
17648;SDS011;8943;51.110;-4.158;2022-07-23T03:54:38;3.07;;;2.30;;
17648;SDS011;8943;51.110;-4.158;2022-07-23T03:57:07;3.93;;;2.23;;
17648;SDS011;8943;51.110;-4.158;2022-07-23T03:59:36;4.50;;;3.00;;
17648;SDS011;8943;51.110;-4.158;2022-07-23T04:02:04;6.00;;;2.80;;
17648;SDS011;8943;51.110;-4.158;2022-07-23T04:04:32;4.70;;;2.23;;
17648;SDS011;8943;51.110;-4.158;2022-07-23T04:07:01;4.50;;;2.60;;
17648;SDS011;8943;51.110;-4.158;2022-07-23T04:09:31;3.90;;;2.63;;
17648;SDS011;8943;51.110;-4.158;2022-07-23T04:11:59;5.20;;;2.67;;
17648;SDS011;8943;51.110;-4.158;2022-07-23T04:14:29;2.53;;;2.17;;
17648;SDS011;8943;51.110;-4.158;2022-07-23T04:17:00;4.70;;;2.80;;
17648;SDS011;8943;51.110;-4.158;2022-07-23T04:19:29;4.53;;;2.20;;
17648;SDS011;8943;51.110;-4.158;2022-07-23T04:21:57;2.87;;;2.07;;
17648;SDS011;8943;51.110;-4.158;2022-07-23T04:24:26;2.83;;;2.37;;
17648;SDS011;8943;51.110;-4.158;2022-07-23T04:26:54;3.63;;;2.33;;
17648;SDS011;8943;51.110;-4.158;2022-07-23T04:29:23;3.43;;;2.30;;
17648;SDS011;8943;51.110;-4.158;2022-07-23T04:31:53;3.57;;;2.10;;
17648;SDS011;8943;51.110;-4.158;2022-07-23T04:34:21;3.43;;;2.33;;
17648;SDS011;8943;51.110;-4.158;2022-07-23T04:36:52;5.10;;;2.53;;
17648;SDS011;8943;51.110;-4.158;2022-07-23T04:39:21;4.80;;;2.00;;
17648;SDS011;8943;51.110;-4.158;2022-07-23T04:41:49;5.10;;;2.50;;
17648;SDS011;8943;51.110;-4.158;2022-07-23T04:44:20;3.33;;;2.47;;
17648;SDS011;8943;51.110;-4.158;2022-07-23T04:46:48;3.70;;;3.07;;
17648;SDS011;8943;51.110;-4.158;2022-07-23T04:49:19;3.47;;;2.33;;
17648;SDS011;8943;51.110;-4.158;2022-07-23T04:51:48;3.97;;;2.43;;
17648;SDS011;8943;51.110;-4.158;2022-07-23T04:54:19;2.63;;;2.40;;
17648;SDS011;8943;51.110;-4.158;2022-07-23T04:56:48;4.03;;;2.60;;
17648;SDS011;8943;51.110;-4.158;2022-07-23T04:59:17;3.23;;;2.33;;
17648;SDS011;8943;51.110;-4.158;2022-07-23T05:01:45;3.10;;;2.40;;
17648;SDS011;8943;51.110;-4.158;2022-07-23T05:04:15;7.70;;;3.10;;
17648;SDS011;8943;51.110;-4.158;2022-07-23T05:06:45;5.87;;;2.37;;
17648;SDS011;8943;51.110;-4.158;2022-07-23T05:09:14;2.83;;;1.83;;
17648;SDS011;8943;51.110;-4.158;2022-07-23T05:11:42;6.50;;;2.67;;
17648;SDS011;8943;51.110;-4.158;2022-07-23T05:14:11;2.57;;;2.37;;
17648;SDS011;8943;51.110;-4.158;2022-07-23T05:16:39;4.00;;;2.40;;
17648;SDS011;8943;51.110;-4.158;2022-07-23T05:19:08;4.80;;;3.17;;
17648;SDS011;8943;51.110;-4.158;2022-07-23T05:21:37;5.23;;;2.60;;
17648;SDS011;8943;51.110;-4.158;2022-07-23T05:24:07;3.53;;;2.20;;
17648;SDS011;8943;51.110;-4.158;2022-07-23T05:26:35;9.00;;;2.80;;
17648;SDS011;8943;51.110;-4.158;2022-07-23T05:29:04;5.37;;;2.90;;
17648;SDS011;8943;51.110;-4.158;2022-07-23T05:31:33;3.70;;;2.50;;
17648;SDS011;8943;51.110;-4.158;2022-07-23T05:34:02;3.63;;;2.80;;
17648;SDS011;8943;51.110;-4.158;2022-07-23T05:36:30;3.43;;;2.40;;
17648;SDS011;8943;51.110;-4.158;2022-07-23T05:39:02;3.93;;;2.67;;
17648;SDS011;8943;51.110;-4.158;2022-07-23T05:41:33;3.47;;;2.50;;
17648;SDS011;8943;51.110;-4.158;2022-07-23T05:44:05;4.13;;;2.33;;
17648;SDS011;8943;51.110;-4.158;2022-07-23T05:46:34;4.50;;;2.50;;
17648;SDS011;8943;51.110;-4.158;2022-07-23T05:49:02;3.03;;;2.30;;
17648;SDS011;8943;51.110;-4.158;2022-07-23T05:51:32;3.87;;;2.37;;
17648;SDS011;8943;51.110;-4.158;2022-07-23T05:54:00;3.20;;;2.50;;
17648;SDS011;8943;51.110;-4.158;2022-07-23T05:56:28;4.60;;;2.30;;
17648;SDS011;8943;51.110;-4.158;2022-07-23T05:58:58;4.97;;;2.40;;
17648;SDS011;8943;51.110;-4.158;2022-07-23T06:01:26;3.37;;;2.17;;
17648;SDS011;8943;51.110;-4.158;2022-07-23T06:03:55;4.43;;;2.40;;
17648;SDS011;8943;51.110;-4.158;2022-07-23T06:06:23;5.00;;;2.80;;
17648;SDS011;8943;51.110;-4.158;2022-07-23T06:08:51;4.37;;;2.43;;
17648;SDS011;8943;51.110;-4.158;2022-07-23T06:11:22;4.20;;;2.47;;
17648;SDS011;8943;51.110;-4.158;2022-07-23T06:13:50;7.70;;;3.20;;
17648;SDS011;8943;51.110;-4.158;2022-07-23T06:16:19;6.13;;;2.23;;
17648;SDS011;8943;51.110;-4.158;2022-07-23T06:18:48;4.30;;;2.57;;
17648;SDS011;8943;51.110;-4.158;2022-07-23T06:21:16;3.80;;;2.20;;
17648;SDS011;8943;51.110;-4.158;2022-07-23T06:24:05;3.23;;;2.30;;
17648;SDS011;8943;51.110;-4.158;2022-07-23T06:26:33;6.53;;;3.13;;
17648;SDS011;8943;51.110;-4.158;2022-07-23T06:29:02;4.77;;;2.47;;
17648;SDS011;8943;51.110;-4.158;2022-07-23T06:31:32;5.80;;;2.70;;
17648;SDS011;8943;51.110;-4.158;2022-07-23T06:34:01;3.93;;;2.60;;
17648;SDS011;8943;51.110;-4.158;2022-07-23T06:36:30;4.63;;;2.23;;
17648;SDS011;8943;51.110;-4.158;2022-07-23T06:38:58;4.10;;;2.30;;
17648;SDS011;8943;51.110;-4.158;2022-07-23T06:41:26;3.53;;;2.63;;
17648;SDS011;8943;51.110;-4.158;2022-07-23T06:43:54;5.03;;;2.40;;
17648;SDS011;8943;51.110;-4.158;2022-07-23T06:46:23;3.20;;;2.53;;
17648;SDS011;8943;51.110;-4.158;2022-07-23T06:48:53;3.47;;;2.27;;
17648;SDS011;8943;51.110;-4.158;2022-07-23T06:51:21;4.13;;;2.40;;
17648;SDS011;8943;51.110;-4.158;2022-07-23T06:53:50;2.37;;;2.17;;
17648;SDS011;8943;51.110;-4.158;2022-07-23T06:56:18;4.83;;;2.20;;
17648;SDS011;8943;51.110;-4.158;2022-07-23T06:58:46;5.80;;;2.50;;
17648;SDS011;8943;51.110;-4.158;2022-07-23T07:01:14;3.10;;;2.10;;
17648;SDS011;8943;51.110;-4.158;2022-07-23T07:03:42;3.40;;;2.03;;
17648;SDS011;8943;51.110;-4.158;2022-07-23T07:06:12;2.73;;;1.90;;
17648;SDS011;8943;51.110;-4.158;2022-07-23T07:08:45;5.93;;;2.50;;
17648;SDS011;8943;51.110;-4.158;2022-07-23T07:11:15;3.57;;;2.20;;
17648;SDS011;8943;51.110;-4.158;2022-07-23T07:13:43;4.53;;;2.00;;
17648;SDS011;8943;51.110;-4.158;2022-07-23T07:16:12;2.57;;;2.10;;
17648;SDS011;8943;51.110;-4.158;2022-07-23T07:18:41;5.20;;;2.23;;
17648;SDS011;8943;51.110;-4.158;2022-07-23T07:21:09;4.00;;;2.20;;
17648;SDS011;8943;51.110;-4.158;2022-07-23T07:23:40;3.67;;;2.00;;
17648;SDS011;8943;51.110;-4.158;2022-07-23T07:26:08;5.63;;;2.60;;
17648;SDS011;8943;51.110;-4.158;2022-07-23T07:28:37;5.13;;;2.40;;
17648;SDS011;8943;51.110;-4.158;2022-07-23T07:31:07;4.00;;;2.00;;
17648;SDS011;8943;51.110;-4.158;2022-07-23T07:33:36;2.70;;;2.00;;
17648;SDS011;8943;51.110;-4.158;2022-07-23T07:36:05;5.83;;;2.20;;
17648;SDS011;8943;51.110;-4.158;2022-07-23T07:38:35;4.83;;;2.20;;
17648;SDS011;8943;51.110;-4.158;2022-07-23T07:41:04;2.17;;;1.97;;
17648;SDS011;8943;51.110;-4.158;2022-07-23T07:43:33;2.67;;;1.97;;
17648;SDS011;8943;51.110;-4.158;2022-07-23T07:46:02;3.00;;;1.70;;
17648;SDS011;8943;51.110;-4.158;2022-07-23T07:48:31;4.67;;;2.00;;
17648;SDS011;8943;51.110;-4.158;2022-07-23T07:50:59;3.60;;;2.30;;
17648;SDS011;8943;51.110;-4.158;2022-07-23T07:53:28;2.73;;;2.40;;
17648;SDS011;8943;51.110;-4.158;2022-07-23T07:55:58;7.13;;;3.17;;
17648;SDS011;8943;51.110;-4.158;2022-07-23T07:58:26;15.10;;;4.90;;
17648;SDS011;8943;51.110;-4.158;2022-07-23T08:00:55;2.47;;;1.90;;
17648;SDS011;8943;51.110;-4.158;2022-07-23T08:03:24;2.40;;;2.20;;
17648;SDS011;8943;51.110;-4.158;2022-07-23T08:05:53;7.43;;;4.30;;
17648;SDS011;8943;51.110;-4.158;2022-07-23T08:08:21;2.43;;;1.80;;
17648;SDS011;8943;51.110;-4.158;2022-07-23T08:10:49;6.30;;;2.00;;
17648;SDS011;8943;51.110;-4.158;2022-07-23T08:13:21;3.20;;;1.90;;
17648;SDS011;8943;51.110;-4.158;2022-07-23T08:15:51;6.93;;;2.63;;
17648;SDS011;8943;51.110;-4.158;2022-07-23T08:18:21;1.83;;;1.70;;
17648;SDS011;8943;51.110;-4.158;2022-07-23T08:20:49;6.70;;;1.90;;
17648;SDS011;8943;51.110;-4.158;2022-07-23T08:23:18;2.63;;;2.13;;
17648;SDS011;8943;51.110;-4.158;2022-07-23T08:25:50;4.20;;;2.10;;
17648;SDS011;8943;51.110;-4.158;2022-07-23T08:28:20;2.77;;;2.00;;
17648;SDS011;8943;51.110;-4.158;2022-07-23T08:30:48;3.73;;;2.10;;
17648;SDS011;8943;51.110;-4.158;2022-07-23T08:33:18;5.07;;;2.53;;
17648;SDS011;8943;51.110;-4.158;2022-07-23T08:36:00;4.50;;;1.93;;
17648;SDS011;8943;51.110;-4.158;2022-07-23T08:38:31;3.80;;;2.00;;
17648;SDS011;8943;51.110;-4.158;2022-07-23T08:40:59;4.33;;;2.20;;
17648;SDS011;8943;51.110;-4.158;2022-07-23T08:43:30;7.40;;;2.67;;
17648;SDS011;8943;51.110;-4.158;2022-07-23T08:46:02;4.60;;;2.23;;
17648;SDS011;8943;51.110;-4.158;2022-07-23T08:48:31;3.00;;;2.17;;
17648;SDS011;8943;51.110;-4.158;2022-07-23T08:51:02;2.63;;;1.80;;
17648;SDS011;8943;51.110;-4.158;2022-07-23T08:53:34;4.63;;;1.70;;
17648;SDS011;8943;51.110;-4.158;2022-07-23T08:56:05;6.97;;;2.00;;
17648;SDS011;8943;51.110;-4.158;2022-07-23T08:58:37;3.30;;;2.13;;
17648;SDS011;8943;51.110;-4.158;2022-07-23T09:01:06;4.47;;;1.87;;
17648;SDS011;8943;51.110;-4.158;2022-07-23T09:03:34;4.27;;;1.93;;
17648;SDS011;8943;51.110;-4.158;2022-07-23T09:06:04;2.63;;;1.90;;
17648;SDS011;8943;51.110;-4.158;2022-07-23T09:08:34;4.33;;;1.80;;
17648;SDS011;8943;51.110;-4.158;2022-07-23T09:11:04;3.03;;;1.97;;
17648;SDS011;8943;51.110;-4.158;2022-07-23T09:13:37;2.80;;;2.10;;
17648;SDS011;8943;51.110;-4.158;2022-07-23T09:16:09;3.10;;;2.00;;
17648;SDS011;8943;51.110;-4.158;2022-07-23T09:18:42;4.97;;;2.07;;
17648;SDS011;8943;51.110;-4.158;2022-07-23T09:21:19;4.33;;;2.27;;
17648;SDS011;8943;51.110;-4.158;2022-07-23T09:23:54;2.47;;;2.20;;
17648;SDS011;8943;51.110;-4.158;2022-07-23T09:26:30;4.90;;;2.30;;
17648;SDS011;8943;51.110;-4.158;2022-07-23T09:29:15;6.57;;;2.40;;
17648;SDS011;8943;51.110;-4.158;2022-07-23T09:31:47;5.13;;;2.37;;
17648;SDS011;8943;51.110;-4.158;2022-07-23T09:34:21;2.80;;;2.40;;
17648;SDS011;8943;51.110;-4.158;2022-07-23T09:36:51;3.17;;;2.43;;
17648;SDS011;8943;51.110;-4.158;2022-07-23T09:39:25;3.13;;;2.37;;
17648;SDS011;8943;51.110;-4.158;2022-07-23T09:41:55;5.63;;;2.60;;
17648;SDS011;8943;51.110;-4.158;2022-07-23T09:44:27;3.33;;;2.10;;
17648;SDS011;8943;51.110;-4.158;2022-07-23T09:46:57;3.87;;;2.50;;
17648;SDS011;8943;51.110;-4.158;2022-07-23T09:49:31;4.37;;;2.53;;
17648;SDS011;8943;51.110;-4.158;2022-07-23T09:52:00;4.90;;;2.77;;
17648;SDS011;8943;51.110;-4.158;2022-07-23T09:54:35;4.80;;;2.80;;
17648;SDS011;8943;51.110;-4.158;2022-07-23T09:57:09;5.77;;;2.70;;
17648;SDS011;8943;51.110;-4.158;2022-07-23T09:59:50;3.20;;;2.37;;
17648;SDS011;8943;51.110;-4.158;2022-07-23T10:02:20;3.27;;;2.50;;
17648;SDS011;8943;51.110;-4.158;2022-07-23T10:04:54;3.70;;;2.30;;
17648;SDS011;8943;51.110;-4.158;2022-07-23T10:07:23;6.87;;;2.83;;
17648;SDS011;8943;51.110;-4.158;2022-07-23T10:09:56;3.13;;;2.60;;
17648;SDS011;8943;51.110;-4.158;2022-07-23T10:12:27;5.30;;;2.63;;
17648;SDS011;8943;51.110;-4.158;2022-07-23T10:15:14;3.30;;;2.70;;
17648;SDS011;8943;51.110;-4.158;2022-07-23T10:17:47;4.77;;;2.90;;
17648;SDS011;8943;51.110;-4.158;2022-07-23T10:20:16;5.10;;;2.60;;
17648;SDS011;8943;51.110;-4.158;2022-07-23T10:22:47;3.37;;;2.77;;
17648;SDS011;8943;51.110;-4.158;2022-07-23T10:25:30;4.83;;;2.90;;
17648;SDS011;8943;51.110;-4.158;2022-07-23T10:28:06;4.27;;;2.80;;
17648;SDS011;8943;51.110;-4.158;2022-07-23T10:30:49;4.23;;;2.80;;
17648;SDS011;8943;51.110;-4.158;2022-07-23T10:33:30;4.03;;;2.50;;
17648;SDS011;8943;51.110;-4.158;2022-07-23T10:36:09;3.73;;;2.87;;
17648;SDS011;8943;51.110;-4.158;2022-07-23T10:38:48;2.87;;;2.20;;
17648;SDS011;8943;51.110;-4.158;2022-07-23T10:41:32;5.33;;;2.50;;
17648;SDS011;8943;51.110;-4.158;2022-07-23T10:44:56;4.00;;;3.00;;
17648;SDS011;8943;51.110;-4.158;2022-07-23T10:47:56;4.00;;;2.80;;
17648;SDS011;8943;51.110;-4.158;2022-07-23T10:50:42;6.07;;;2.87;;
17648;SDS011;8943;51.110;-4.158;2022-07-23T10:53:13;4.77;;;2.67;;
17648;SDS011;8943;51.110;-4.158;2022-07-23T10:56:01;5.90;;;2.67;;
17648;SDS011;8943;51.110;-4.158;2022-07-23T11:10:08;3.23;;;2.20;;
17648;SDS011;8943;51.110;-4.158;2022-07-23T11:19:07;3.50;;;2.17;;
17648;SDS011;8943;51.110;-4.158;2022-07-23T11:21:45;3.77;;;2.30;;
17648;SDS011;8943;51.110;-4.158;2022-07-23T11:24:16;3.43;;;2.20;;
17648;SDS011;8943;51.110;-4.158;2022-07-23T11:27:00;4.13;;;1.90;;
17648;SDS011;8943;51.110;-4.158;2022-07-23T11:29:41;4.07;;;2.47;;
17648;SDS011;8943;51.110;-4.158;2022-07-23T11:32:23;3.60;;;2.40;;
17648;SDS011;8943;51.110;-4.158;2022-07-23T11:34:57;4.63;;;2.03;;
17648;SDS011;8943;51.110;-4.158;2022-07-23T11:37:35;5.87;;;2.40;;
17648;SDS011;8943;51.110;-4.158;2022-07-23T11:40:13;4.60;;;2.60;;
17648;SDS011;8943;51.110;-4.158;2022-07-23T11:42:51;3.40;;;2.33;;
17648;SDS011;8943;51.110;-4.158;2022-07-23T11:48:25;5.03;;;2.70;;
17648;SDS011;8943;51.110;-4.158;2022-07-23T11:51:11;5.47;;;2.90;;
17648;SDS011;8943;51.110;-4.158;2022-07-23T11:54:33;3.17;;;2.63;;
17648;SDS011;8943;51.110;-4.158;2022-07-23T11:57:18;5.53;;;3.23;;
17648;SDS011;8943;51.110;-4.158;2022-07-23T11:59:52;6.37;;;3.20;;
17648;SDS011;8943;51.110;-4.158;2022-07-23T12:02:25;7.70;;;3.30;;
17648;SDS011;8943;51.110;-4.158;2022-07-23T12:04:58;4.50;;;3.13;;
17648;SDS011;8943;51.110;-4.158;2022-07-23T12:13:25;5.93;;;3.40;;
17648;SDS011;8943;51.110;-4.158;2022-07-23T12:15:56;5.57;;;3.23;;
17648;SDS011;8943;51.110;-4.158;2022-07-23T12:18:26;6.80;;;3.00;;
17648;SDS011;8943;51.110;-4.158;2022-07-23T12:21:03;4.13;;;3.00;;
17648;SDS011;8943;51.110;-4.158;2022-07-23T12:23:48;6.13;;;3.00;;
17648;SDS011;8943;51.110;-4.158;2022-07-23T12:26:20;5.33;;;2.80;;
17648;SDS011;8943;51.110;-4.158;2022-07-23T12:28:52;7.97;;;3.47;;
17648;SDS011;8943;51.110;-4.158;2022-07-23T12:31:25;5.30;;;3.30;;
17648;SDS011;8943;51.110;-4.158;2022-07-23T12:34:13;5.30;;;2.80;;
17648;SDS011;8943;51.110;-4.158;2022-07-23T12:36:43;3.90;;;3.00;;
17648;SDS011;8943;51.110;-4.158;2022-07-23T12:39:28;3.47;;;2.80;;
17648;SDS011;8943;51.110;-4.158;2022-07-23T12:42:15;4.97;;;2.87;;
17648;SDS011;8943;51.110;-4.158;2022-07-23T12:50:33;4.53;;;3.13;;
17648;SDS011;8943;51.110;-4.158;2022-07-23T12:53:32;3.30;;;2.63;;
17648;SDS011;8943;51.110;-4.158;2022-07-23T12:56:15;7.43;;;2.77;;
17648;SDS011;8943;51.110;-4.158;2022-07-23T12:58:55;4.83;;;2.60;;
17648;SDS011;8943;51.110;-4.158;2022-07-23T13:01:42;4.90;;;2.57;;
17648;SDS011;8943;51.110;-4.158;2022-07-23T13:04:17;5.67;;;2.70;;
17648;SDS011;8943;51.110;-4.158;2022-07-23T13:06:48;4.77;;;2.50;;
17648;SDS011;8943;51.110;-4.158;2022-07-23T13:09:18;5.03;;;2.47;;
17648;SDS011;8943;51.110;-4.158;2022-07-23T13:12:17;5.30;;;2.57;;
17648;SDS011;8943;51.110;-4.158;2022-07-23T13:14:54;7.83;;;2.67;;
17648;SDS011;8943;51.110;-4.158;2022-07-23T13:17:23;4.17;;;2.27;;
17648;SDS011;8943;51.110;-4.158;2022-07-23T13:23:37;4.60;;;1.80;;
17648;SDS011;8943;51.110;-4.158;2022-07-23T13:26:23;4.67;;;1.77;;
17648;SDS011;8943;51.110;-4.158;2022-07-23T13:29:00;4.70;;;1.80;;
17648;SDS011;8943;51.110;-4.158;2022-07-23T13:31:31;3.90;;;2.10;;
17648;SDS011;8943;51.110;-4.158;2022-07-23T13:34:02;3.93;;;2.47;;
17648;SDS011;8943;51.110;-4.158;2022-07-23T13:36:45;4.37;;;1.93;;
17648;SDS011;8943;51.110;-4.158;2022-07-23T13:39:16;2.00;;;1.57;;
17648;SDS011;8943;51.110;-4.158;2022-07-23T13:41:49;1.93;;;1.30;;
17648;SDS011;8943;51.110;-4.158;2022-07-23T13:44:19;2.97;;;1.60;;
17648;SDS011;8943;51.110;-4.158;2022-07-23T13:46:55;4.23;;;1.80;;
17648;SDS011;8943;51.110;-4.158;2022-07-23T13:49:31;3.77;;;1.70;;
17648;SDS011;8943;51.110;-4.158;2022-07-23T13:52:01;3.53;;;1.90;;
17648;SDS011;8943;51.110;-4.158;2022-07-23T13:54:49;4.10;;;2.13;;
17648;SDS011;8943;51.110;-4.158;2022-07-23T13:57:27;5.03;;;1.93;;
17648;SDS011;8943;51.110;-4.158;2022-07-23T13:59:57;2.30;;;1.83;;
17648;SDS011;8943;51.110;-4.158;2022-07-23T14:02:57;6.13;;;1.90;;
17648;SDS011;8943;51.110;-4.158;2022-07-23T14:05:31;3.93;;;1.90;;
17648;SDS011;8943;51.110;-4.158;2022-07-23T14:08:04;3.13;;;1.83;;
17648;SDS011;8943;51.110;-4.158;2022-07-23T14:10:48;4.60;;;2.17;;
17648;SDS011;8943;51.110;-4.158;2022-07-23T14:13:18;2.13;;;1.80;;
17648;SDS011;8943;51.110;-4.158;2022-07-23T14:15:47;3.33;;;2.00;;
17648;SDS011;8943;51.110;-4.158;2022-07-23T14:18:19;3.23;;;1.90;;
17648;SDS011;8943;51.110;-4.158;2022-07-23T14:20:49;4.33;;;1.97;;
17648;SDS011;8943;51.110;-4.158;2022-07-23T14:23:29;4.20;;;2.10;;
17648;SDS011;8943;51.110;-4.158;2022-07-23T14:26:13;4.37;;;2.00;;
17648;SDS011;8943;51.110;-4.158;2022-07-23T14:40:12;2.83;;;1.67;;
17648;SDS011;8943;51.110;-4.158;2022-07-23T14:42:43;3.10;;;1.90;;
17648;SDS011;8943;51.110;-4.158;2022-07-23T14:45:12;3.10;;;1.73;;
17648;SDS011;8943;51.110;-4.158;2022-07-23T14:47:40;3.93;;;1.90;;
17648;SDS011;8943;51.110;-4.158;2022-07-23T14:50:12;5.27;;;1.83;;
17648;SDS011;8943;51.110;-4.158;2022-07-23T14:52:43;3.40;;;2.30;;
17648;SDS011;8943;51.110;-4.158;2022-07-23T14:55:16;5.10;;;1.77;;
17648;SDS011;8943;51.110;-4.158;2022-07-23T14:57:45;2.90;;;1.70;;
17648;SDS011;8943;51.110;-4.158;2022-07-23T15:00:39;4.13;;;1.53;;
17648;SDS011;8943;51.110;-4.158;2022-07-23T15:03:11;4.30;;;1.60;;
17648;SDS011;8943;51.110;-4.158;2022-07-23T15:05:53;1.57;;;1.37;;
17648;SDS011;8943;51.110;-4.158;2022-07-23T15:08:23;3.53;;;1.43;;
17648;SDS011;8943;51.110;-4.158;2022-07-23T15:10:54;3.60;;;1.53;;
17648;SDS011;8943;51.110;-4.158;2022-07-23T15:13:24;2.97;;;1.43;;
17648;SDS011;8943;51.110;-4.158;2022-07-23T15:15:57;2.37;;;1.40;;
17648;SDS011;8943;51.110;-4.158;2022-07-23T15:18:30;2.30;;;1.30;;
17648;SDS011;8943;51.110;-4.158;2022-07-23T15:21:03;2.13;;;1.40;;
17648;SDS011;8943;51.110;-4.158;2022-07-23T15:23:36;3.20;;;1.33;;
17648;SDS011;8943;51.110;-4.158;2022-07-23T15:26:13;1.70;;;1.30;;
17648;SDS011;8943;51.110;-4.158;2022-07-23T15:28:42;3.67;;;1.50;;
17648;SDS011;8943;51.110;-4.158;2022-07-23T15:31:11;1.90;;;1.20;;
17648;SDS011;8943;51.110;-4.158;2022-07-23T15:33:39;2.27;;;1.40;;
17648;SDS011;8943;51.110;-4.158;2022-07-23T15:36:16;1.97;;;1.20;;
17648;SDS011;8943;51.110;-4.158;2022-07-23T15:38:45;2.30;;;1.20;;
17648;SDS011;8943;51.110;-4.158;2022-07-23T15:41:22;5.37;;;1.73;;
17648;SDS011;8943;51.110;-4.158;2022-07-23T15:43:56;3.87;;;1.33;;
17648;SDS011;8943;51.110;-4.158;2022-07-23T15:46:25;3.47;;;1.70;;
17648;SDS011;8943;51.110;-4.158;2022-07-23T15:48:56;3.10;;;1.90;;
17648;SDS011;8943;51.110;-4.158;2022-07-23T15:51:29;4.27;;;2.10;;
17648;SDS011;8943;51.110;-4.158;2022-07-23T15:54:13;2.93;;;1.93;;
17648;SDS011;8943;51.110;-4.158;2022-07-23T15:56:59;3.03;;;1.77;;
17648;SDS011;8943;51.110;-4.158;2022-07-23T15:59:36;5.40;;;2.10;;
17648;SDS011;8943;51.110;-4.158;2022-07-23T16:02:13;5.03;;;2.40;;
17648;SDS011;8943;51.110;-4.158;2022-07-23T16:04:42;3.70;;;1.60;;